createdAt,value
2018-04-06T00:01:59.793Z,4.83
2018-04-06T00:04:26.493Z,9.03
2018-04-06T00:06:53.189Z,10.17
2018-04-06T00:09:19.891Z,7.07
2018-04-06T00:11:46.585Z,8.30
2018-04-06T00:14:13.325Z,10.57
2018-04-06T00:16:40.025Z,8.83
2018-04-06T00:19:06.724Z,13.63
2018-04-06T00:21:33.448Z,7.47
2018-04-06T00:24:00.153Z,8.10
2018-04-06T00:26:26.853Z,8.80
2018-04-06T00:28:53.581Z,6.07
2018-04-06T00:31:20.281Z,8.50
2018-04-06T00:33:46.989Z,8.43
2018-04-06T00:36:13.691Z,8.70
2018-04-06T00:38:40.392Z,10.47
2018-04-06T00:41:07.113Z,9.20
2018-04-06T00:43:33.817Z,11.70
2018-04-06T00:46:00.517Z,7.83
2018-04-06T00:48:27.217Z,9.93
2018-04-06T00:50:53.913Z,12.33
2018-04-06T00:53:26.401Z,11.10
2018-04-06T00:55:53.097Z,9.70
2018-04-06T00:58:19.798Z,8.57
2018-04-06T01:00:46.622Z,10.17
2018-04-06T01:03:13.466Z,8.33
2018-04-06T01:05:40.193Z,12.17
2018-04-06T01:08:06.893Z,10.87
2018-04-06T01:10:33.593Z,11.50
2018-04-06T01:13:00.302Z,16.00
2018-04-06T01:15:27.002Z,11.87
2018-04-06T01:17:53.729Z,13.77
2018-04-06T01:20:20.439Z,12.07
2018-04-06T01:22:47.144Z,11.33
2018-04-06T01:25:13.845Z,8.77
2018-04-06T01:27:40.557Z,13.93
2018-04-06T01:30:07.297Z,10.33
2018-04-06T01:32:34.038Z,13.40
2018-04-06T01:35:00.740Z,12.93
2018-04-06T01:37:27.441Z,14.70
2018-04-06T01:39:54.150Z,11.63
2018-04-06T01:42:20.889Z,8.03
2018-04-06T01:44:47.589Z,5.77
2018-04-06T01:47:14.437Z,7.73
2018-04-06T01:49:41.135Z,3.33
2018-04-06T01:52:07.830Z,2.10
2018-04-06T01:54:34.561Z,1.70
2018-04-06T01:57:01.266Z,1.07
2018-04-06T01:59:27.970Z,1.00
2018-04-06T02:01:54.665Z,0.80
2018-04-06T02:04:21.356Z,0.80
2018-04-06T02:06:48.083Z,0.63
2018-04-06T02:09:14.793Z,0.50
2018-04-06T02:11:41.489Z,0.20
2018-04-06T02:14:08.182Z,0.60
2018-04-06T02:16:34.877Z,0.30
2018-04-06T02:19:01.607Z,0.10
2018-04-06T02:21:28.305Z,0.20
2018-04-06T02:23:55.001Z,0.20
2018-04-06T02:26:21.715Z,0.30
2018-04-06T02:28:48.644Z,0.20
2018-04-06T02:31:15.365Z,0.30
2018-04-06T02:33:42.072Z,0.33
2018-04-06T02:36:08.778Z,0.57
2018-04-06T02:38:35.483Z,0.50
2018-04-06T02:41:02.186Z,0.43
2018-04-06T02:43:28.917Z,0.40
2018-04-06T02:45:55.646Z,1.30
2018-04-06T02:48:22.343Z,0.67
2018-04-06T02:50:49.998Z,0.57
2018-04-06T02:53:16.690Z,0.40
2018-04-06T02:55:43.410Z,0.50
2018-04-06T02:58:10.104Z,0.43
2018-04-06T03:00:36.817Z,0.40
2018-04-06T03:03:03.542Z,0.30
2018-04-06T03:05:30.241Z,0.50
2018-04-06T03:07:56.961Z,0.60
2018-04-06T03:10:23.662Z,0.60
2018-04-06T03:12:50.374Z,0.73
2018-04-06T03:15:17.073Z,0.80
2018-04-06T03:17:43.793Z,0.70
2018-04-06T03:20:10.517Z,0.70
2018-04-06T03:22:37.210Z,0.80
2018-04-06T03:25:03.905Z,1.30
2018-04-06T03:27:30.605Z,0.90
2018-04-06T03:29:57.296Z,0.87
2018-04-06T03:32:24.025Z,0.90
2018-04-06T03:34:50.730Z,0.90
2018-04-06T03:37:17.421Z,0.80
2018-04-06T03:39:44.108Z,1.10
2018-04-06T03:42:10.800Z,1.10
2018-04-06T03:44:37.524Z,0.80
2018-04-06T03:47:04.224Z,2.73
2018-04-06T03:49:30.930Z,1.03
2018-04-06T03:51:57.633Z,1.80
2018-04-06T03:54:24.336Z,0.90
2018-04-06T03:56:51.062Z,0.90
2018-04-06T03:59:17.759Z,1.17
2018-04-06T04:01:44.453Z,1.67
2018-04-06T04:04:11.155Z,0.97
2018-04-06T04:06:37.857Z,1.83
2018-04-06T04:09:04.581Z,2.30
2018-04-06T04:11:31.282Z,4.07
2018-04-06T04:13:57.980Z,2.93
2018-04-06T04:16:24.681Z,4.73
2018-04-06T04:18:51.377Z,2.23
2018-04-06T04:21:18.109Z,0.60
2018-04-06T04:23:44.805Z,2.60
2018-04-06T04:26:11.508Z,1.33
2018-04-06T04:28:38.210Z,1.53
2018-04-06T04:31:04.903Z,1.73
2018-04-06T04:33:31.626Z,1.17
2018-04-06T04:35:58.332Z,2.07
2018-04-06T04:38:25.025Z,1.40
2018-04-06T04:40:51.721Z,2.10
2018-04-06T04:43:18.413Z,2.87
2018-04-06T04:45:45.145Z,1.47
2018-04-06T04:48:12.108Z,1.70
2018-04-06T04:50:38.819Z,3.70
2018-04-06T04:53:05.517Z,2.27
2018-04-06T04:55:32.217Z,3.10
2018-04-06T04:57:58.941Z,1.50
2018-04-06T05:00:25.655Z,1.43
2018-04-06T05:02:52.363Z,1.50
2018-04-06T05:05:19.073Z,1.53
2018-04-06T05:07:45.773Z,2.73
2018-04-06T05:10:12.489Z,2.47
2018-04-06T05:12:39.192Z,1.57
2018-04-06T05:15:06.137Z,1.93
2018-04-06T05:17:32.844Z,3.30
2018-04-06T05:19:59.547Z,1.90
2018-04-06T05:22:26.279Z,1.13
2018-04-06T05:24:52.981Z,0.83
2018-04-06T05:27:19.680Z,1.00
2018-04-06T05:29:46.392Z,2.67
2018-04-06T05:32:13.214Z,2.00
2018-04-06T05:34:39.943Z,4.13
2018-04-06T05:37:06.649Z,4.10
2018-04-06T05:39:33.345Z,4.93
2018-04-06T05:42:00.046Z,2.20
2018-04-06T05:44:26.785Z,1.87
2018-04-06T05:46:53.505Z,2.90
2018-04-06T05:49:20.200Z,3.67
2018-04-06T05:51:46.900Z,3.20
2018-04-06T05:54:13.604Z,4.27
2018-04-06T05:56:40.304Z,4.53
2018-04-06T05:59:07.037Z,2.27
2018-04-06T06:01:33.735Z,2.43
2018-04-06T06:04:00.453Z,2.60
2018-04-06T06:06:27.144Z,3.03
2018-04-06T06:08:53.841Z,4.47
2018-04-06T06:11:20.591Z,3.40
2018-04-06T06:13:47.293Z,4.23
2018-04-06T06:16:13.993Z,1.47
2018-04-06T06:18:40.693Z,1.17
2018-04-06T06:21:07.606Z,0.80
2018-04-06T06:23:34.305Z,3.23
2018-04-06T06:26:01.009Z,1.83
2018-04-06T06:28:27.716Z,2.80
2018-04-06T06:30:54.419Z,2.30
2018-04-06T06:33:21.200Z,1.97
2018-04-06T06:35:47.897Z,2.33
2018-04-06T06:38:14.613Z,4.03
2018-04-06T06:40:41.344Z,3.10
2018-04-06T06:43:08.083Z,2.80
2018-04-06T06:45:34.781Z,3.60
2018-04-06T06:48:01.505Z,1.50
2018-04-06T06:50:28.222Z,2.00
2018-04-06T06:52:54.925Z,3.50
2018-04-06T06:55:21.651Z,1.90
2018-04-06T06:57:48.353Z,2.87
2018-04-06T07:00:15.058Z,3.00
2018-04-06T07:02:41.753Z,4.50
2018-04-06T07:05:08.457Z,4.33
2018-04-06T07:07:35.185Z,3.83
2018-04-06T07:10:01.877Z,1.33
2018-04-06T07:12:28.585Z,2.87
2018-04-06T07:14:55.282Z,1.13
2018-04-06T07:17:21.977Z,2.77
2018-04-06T07:19:48.705Z,3.30
2018-04-06T07:22:15.587Z,0.97
2018-04-06T07:24:42.289Z,2.53
2018-04-06T07:27:08.982Z,1.80
2018-04-06T07:29:35.907Z,1.67
2018-04-06T07:32:02.653Z,1.33
2018-04-06T07:34:29.591Z,2.30
2018-04-06T07:36:56.285Z,6.17
2018-04-06T07:39:22.983Z,2.87
2018-04-06T07:41:49.687Z,3.10
2018-04-06T07:44:16.487Z,3.43
2018-04-06T07:46:43.174Z,3.60
2018-04-06T07:49:09.873Z,3.17
2018-04-06T07:51:36.570Z,2.17
2018-04-06T07:54:03.270Z,2.67
2018-04-06T07:56:29.997Z,0.90
2018-04-06T07:58:56.697Z,1.50
2018-04-06T08:01:23.527Z,2.47
2018-04-06T08:03:50.233Z,1.50
2018-04-06T08:06:16.929Z,1.07
2018-04-06T08:08:43.626Z,0.90
2018-04-06T08:11:10.329Z,2.77
2018-04-06T08:13:37.132Z,1.13
2018-04-06T08:16:03.834Z,3.43
2018-04-06T08:18:30.537Z,1.67
2018-04-06T08:20:57.228Z,1.20
2018-04-06T08:23:23.921Z,1.00
2018-04-06T08:25:50.645Z,0.70
2018-04-06T08:28:17.340Z,0.80
2018-04-06T08:30:44.037Z,1.70
2018-04-06T08:33:10.761Z,1.40
2018-04-06T08:35:37.483Z,2.57
2018-04-06T08:38:04.181Z,0.80
2018-04-06T08:40:30.881Z,0.90
2018-04-06T08:42:57.577Z,1.73
2018-04-06T08:45:24.313Z,1.07
2018-04-06T08:47:51.016Z,0.80
2018-04-06T08:50:17.709Z,0.70
2018-04-06T08:52:44.404Z,0.70
2018-04-06T08:55:11.107Z,0.83
2018-04-06T08:57:37.838Z,0.60
2018-04-06T09:00:04.532Z,0.80
2018-04-06T09:02:31.232Z,0.80
2018-04-06T09:04:57.954Z,0.63
2018-04-06T09:07:24.652Z,0.67
2018-04-06T09:09:51.528Z,0.70
2018-04-06T09:12:18.225Z,0.67
2018-04-06T09:14:44.925Z,0.60
2018-04-06T09:17:11.643Z,1.13
2018-04-06T09:19:39.203Z,0.60
2018-04-06T09:22:05.900Z,0.80
2018-04-06T09:24:32.596Z,0.70
2018-04-06T09:26:59.293Z,0.70
2018-04-06T09:29:26.018Z,0.70
2018-04-06T09:31:52.721Z,0.87
2018-04-06T09:34:19.418Z,0.70
2018-04-06T09:36:46.121Z,0.80
2018-04-06T09:39:12.817Z,0.70
2018-04-06T09:41:39.580Z,0.70
2018-04-06T09:44:06.261Z,0.60
2018-04-06T09:46:33.249Z,0.60
2018-04-06T09:49:01.006Z,0.67
2018-04-06T09:51:27.715Z,0.73
2018-04-06T09:53:55.237Z,0.83
2018-04-06T09:56:22.637Z,0.60
2018-04-06T09:58:49.330Z,1.00
2018-04-06T10:01:16.030Z,1.60
2018-04-06T10:03:42.729Z,0.80
2018-04-06T10:06:09.457Z,0.70
2018-04-06T10:08:36.155Z,0.70
2018-04-06T10:11:02.849Z,0.63
2018-04-06T10:13:29.550Z,1.13
2018-04-06T10:15:56.277Z,0.50
2018-04-06T10:18:23.009Z,0.60
2018-04-06T10:20:49.721Z,0.40
2018-04-06T10:23:16.418Z,0.50
2018-04-06T10:25:43.118Z,0.80
2018-04-06T10:28:09.817Z,0.50
2018-04-06T10:30:36.533Z,0.60
2018-04-06T10:33:03.234Z,0.50
2018-04-06T10:35:29.930Z,0.43
2018-04-06T10:37:56.633Z,0.50
2018-04-06T10:40:23.329Z,0.60
2018-04-06T10:42:50.060Z,0.70
2018-04-06T10:45:16.780Z,0.60
2018-04-06T10:47:43.477Z,0.60
2018-04-06T10:50:10.170Z,0.57
2018-04-06T10:52:36.868Z,0.57
2018-04-06T10:55:03.595Z,0.50
2018-04-06T10:57:30.290Z,0.73
2018-04-06T10:59:57.076Z,0.37
2018-04-06T11:02:23.769Z,0.43
2018-04-06T11:04:50.762Z,0.20
2018-04-06T11:07:17.484Z,0.30
2018-04-06T11:09:45.421Z,0.40
2018-04-06T11:12:12.130Z,0.40
2018-04-06T11:14:38.834Z,0.47
2018-04-06T11:17:05.533Z,0.33
2018-04-06T11:19:32.261Z,0.30
2018-04-06T11:21:58.958Z,0.47
2018-04-06T11:24:25.806Z,0.40
2018-04-06T11:26:52.507Z,0.60
2018-04-06T11:29:19.229Z,0.40
2018-04-06T11:31:46.000Z,0.40
2018-04-06T11:34:12.693Z,0.40
2018-04-06T11:36:39.405Z,0.80
2018-04-06T11:39:06.101Z,0.60
2018-04-06T11:41:32.800Z,0.80
2018-04-06T11:43:59.535Z,0.37
2018-04-06T11:46:26.241Z,0.60
2018-04-06T11:48:52.937Z,0.50
2018-04-06T11:51:19.634Z,0.40
2018-04-06T11:53:46.333Z,0.50
2018-04-06T11:56:13.068Z,0.60
2018-04-06T11:58:39.769Z,0.70
2018-04-06T12:01:06.601Z,0.63
2018-04-06T12:03:33.289Z,0.60
2018-04-06T12:05:59.984Z,0.40
2018-04-06T12:08:26.729Z,0.47
2018-04-06T12:10:53.431Z,0.37
2018-04-06T12:13:20.134Z,0.50
2018-04-06T12:15:47.042Z,0.20
2018-04-06T12:18:15.732Z,0.30
2018-04-06T12:20:42.500Z,0.40
2018-04-06T12:23:09.417Z,0.87
2018-04-06T12:25:36.251Z,0.40
2018-04-06T12:28:02.957Z,0.30
2018-04-06T12:30:29.660Z,0.47
2018-04-06T12:32:56.386Z,0.50
2018-04-06T12:35:23.081Z,0.50
2018-04-06T12:37:49.777Z,0.40
2018-04-06T12:40:16.474Z,0.30
2018-04-06T12:42:43.171Z,0.30
2018-04-06T12:45:09.899Z,0.20
2018-04-06T12:47:36.598Z,0.40
2018-04-06T12:50:03.308Z,0.20
2018-04-06T12:52:30.007Z,0.30
2018-04-06T12:54:56.711Z,0.20
2018-04-06T12:57:23.433Z,0.27
2018-04-06T12:59:50.131Z,0.20
2018-04-06T13:02:16.833Z,0.30
2018-04-06T13:04:43.564Z,0.83
2018-04-06T13:07:10.257Z,0.30
2018-04-06T13:09:36.979Z,0.30
2018-04-06T13:12:03.681Z,4.33
2018-04-06T13:14:30.389Z,0.50
2018-04-06T13:16:57.100Z,0.40
2018-04-06T13:19:23.818Z,0.30
2018-04-06T13:21:50.571Z,0.30
2018-04-06T13:24:17.269Z,0.20
2018-04-06T13:26:43.966Z,0.47
2018-04-06T13:29:10.679Z,0.20
2018-04-06T13:31:37.389Z,0.60
2018-04-06T13:34:04.129Z,0.40
2018-04-06T13:36:30.826Z,0.43
2018-04-06T13:38:58.197Z,0.40
2018-04-06T13:41:24.902Z,0.30
2018-04-06T13:43:51.597Z,0.33
2018-04-06T13:46:18.344Z,0.40
2018-04-06T13:48:45.048Z,0.30
2018-04-06T13:51:11.745Z,0.30
2018-04-06T13:53:38.446Z,0.30
2018-04-06T13:56:05.154Z,0.30
2018-04-06T13:58:31.869Z,0.73
2018-04-06T14:00:58.635Z,0.30
2018-04-06T14:03:25.285Z,0.30
2018-04-06T14:05:51.985Z,0.20
2018-04-06T14:08:18.816Z,0.40
2018-04-06T14:10:45.659Z,2.67
2018-04-06T14:13:12.605Z,3.80
2018-04-06T14:15:39.444Z,0.60
2018-04-06T14:18:06.139Z,0.40
2018-04-06T14:20:32.837Z,0.30
2018-04-06T14:22:59.533Z,0.40
2018-04-06T14:25:26.229Z,0.57
2018-04-06T14:27:52.925Z,1.23
2018-04-06T14:30:19.621Z,1.30
2018-04-06T14:32:46.524Z,0.40
2018-04-06T14:35:13.225Z,0.50
2018-04-06T14:37:40.000Z,0.50
2018-04-06T14:40:06.665Z,0.70
2018-04-06T14:42:33.361Z,0.60
2018-04-06T14:45:00.097Z,0.60
2018-04-06T14:47:26.794Z,0.60
2018-04-06T14:49:53.498Z,0.60
2018-04-06T14:52:20.232Z,0.60
2018-04-06T14:54:47.183Z,0.77
2018-04-06T14:57:13.877Z,0.60
2018-04-06T14:59:40.585Z,0.80
2018-04-06T15:02:07.286Z,0.70
2018-04-06T15:04:34.014Z,0.80
2018-04-06T15:07:00.706Z,0.77
2018-04-06T15:09:27.414Z,0.50
2018-04-06T15:11:54.172Z,0.60
2018-04-06T15:14:20.862Z,0.60
2018-04-06T15:16:47.585Z,0.70
2018-04-06T15:19:14.289Z,0.60
2018-04-06T15:21:40.991Z,0.67
2018-04-06T15:24:07.753Z,0.67
2018-04-06T15:26:34.448Z,0.60
2018-04-06T15:29:01.169Z,0.70
2018-04-06T15:31:27.860Z,0.70
2018-04-06T15:33:54.552Z,0.70
2018-04-06T15:36:21.350Z,0.60
2018-04-06T15:38:48.192Z,0.53
2018-04-06T15:41:14.918Z,1.00
2018-04-06T15:43:41.613Z,0.80
2018-04-06T15:46:08.309Z,0.87
2018-04-06T15:48:35.005Z,0.80
2018-04-06T15:51:01.701Z,0.60
2018-04-06T15:53:28.429Z,0.70
2018-04-06T15:55:55.120Z,0.60
2018-04-06T15:58:21.857Z,0.50
2018-04-06T16:00:48.553Z,0.87
2018-04-06T16:03:15.252Z,1.23
2018-04-06T16:05:41.973Z,0.60
2018-04-06T16:08:08.682Z,1.00
2018-04-06T16:10:35.376Z,0.60
2018-04-06T16:13:02.080Z,0.50
2018-04-06T16:15:28.773Z,1.10
2018-04-06T16:17:55.533Z,2.20
2018-04-06T16:20:22.232Z,0.87
2018-04-06T16:22:48.968Z,1.60
2018-04-06T16:25:15.665Z,2.00
2018-04-06T16:27:42.362Z,2.60
2018-04-06T16:30:09.097Z,1.70
2018-04-06T16:32:35.804Z,1.13
2018-04-06T16:35:02.509Z,1.00
2018-04-06T16:37:29.209Z,0.70
2018-04-06T16:39:55.904Z,0.60
2018-04-06T16:42:22.633Z,0.60
2018-04-06T16:44:49.529Z,0.53
2018-04-06T16:47:16.221Z,0.60
2018-04-06T16:49:42.917Z,0.60
2018-04-06T16:52:09.622Z,0.47
2018-04-06T16:54:36.357Z,0.80
2018-04-06T16:57:03.061Z,0.50
2018-04-06T16:59:29.761Z,0.50
2018-04-06T17:01:56.460Z,0.60
2018-04-06T17:04:23.169Z,0.60
2018-04-06T17:06:49.910Z,0.80
2018-04-06T17:09:16.626Z,0.60
2018-04-06T17:11:43.389Z,0.70
2018-04-06T17:14:10.085Z,0.80
2018-04-06T17:16:37.073Z,0.80
2018-04-06T17:19:03.810Z,0.70
2018-04-06T17:21:30.517Z,0.70
2018-04-06T17:23:57.217Z,0.70
2018-04-06T17:26:23.919Z,0.80
2018-04-06T17:28:50.612Z,0.70
2018-04-06T17:31:17.511Z,2.43
2018-04-06T17:33:44.220Z,0.80
2018-04-06T17:36:10.917Z,0.70
2018-04-06T17:38:37.731Z,0.80
2018-04-06T17:41:04.429Z,0.80
2018-04-06T17:43:31.458Z,0.60
2018-04-06T17:45:58.162Z,0.60
2018-04-06T17:48:24.869Z,0.70
2018-04-06T17:50:51.568Z,0.63
2018-04-06T17:53:18.273Z,0.70
2018-04-06T17:55:45.014Z,0.60
2018-04-06T17:58:11.714Z,0.57
2018-04-06T18:00:38.421Z,0.70
2018-04-06T18:03:05.232Z,0.70
2018-04-06T18:05:31.928Z,0.60
2018-04-06T18:07:58.656Z,2.07
2018-04-06T18:10:25.454Z,0.90
2018-04-06T18:12:52.150Z,0.90
2018-04-06T18:15:18.849Z,1.03
2018-04-06T18:17:45.546Z,0.80
2018-04-06T18:20:12.270Z,0.70
2018-04-06T18:22:39.052Z,1.13
2018-04-06T18:25:05.746Z,2.80
2018-04-06T18:27:32.484Z,3.87
2018-04-06T18:29:59.173Z,1.57
2018-04-06T18:32:25.893Z,0.83
2018-04-06T18:34:52.596Z,0.70
2018-04-06T18:37:19.298Z,0.70
2018-04-06T18:39:46.011Z,0.60
2018-04-06T18:42:12.708Z,0.53
2018-04-06T18:44:39.504Z,0.60
2018-04-06T18:47:06.169Z,0.50
2018-04-06T18:49:32.864Z,0.50
2018-04-06T18:51:59.568Z,0.77
2018-04-06T18:54:26.265Z,0.80
2018-04-06T18:56:52.997Z,1.37
2018-04-06T18:59:19.690Z,3.03
2018-04-06T19:01:46.385Z,1.13
2018-04-06T19:04:13.097Z,1.67
2018-04-06T19:06:39.792Z,3.20
2018-04-06T19:09:06.522Z,3.17
2018-04-06T19:11:33.233Z,1.20
2018-04-06T19:13:59.929Z,1.80
2018-04-06T19:16:26.832Z,3.37
2018-04-06T19:18:53.554Z,1.60
2018-04-06T19:21:20.304Z,1.53
2018-04-06T19:23:47.012Z,1.00
2018-04-06T19:26:13.721Z,1.20
2018-04-06T19:28:40.443Z,1.10
2018-04-06T19:31:07.153Z,0.93
2018-04-06T19:33:33.921Z,3.00
2018-04-06T19:36:00.637Z,1.00
2018-04-06T19:38:27.369Z,0.83
2018-04-06T19:40:54.078Z,0.70
2018-04-06T19:43:20.786Z,1.10
2018-04-06T19:45:47.508Z,1.00
2018-04-06T19:48:14.229Z,1.10
2018-04-06T19:50:40.929Z,1.00
2018-04-06T19:53:07.620Z,0.70
2018-04-06T19:55:34.331Z,0.70
2018-04-06T19:58:01.057Z,1.87
2018-04-06T20:00:27.869Z,1.63
2018-04-06T20:02:54.575Z,1.33
2018-04-06T20:05:21.273Z,1.10
2018-04-06T20:07:47.978Z,1.37
2018-04-06T20:10:14.713Z,3.40
2018-04-06T20:12:41.406Z,1.10
2018-04-06T20:15:08.112Z,1.00
2018-04-06T20:17:34.812Z,1.43
2018-04-06T20:20:01.507Z,1.10
2018-04-06T20:22:28.241Z,0.97
2018-04-06T20:24:54.937Z,1.07
2018-04-06T20:27:21.633Z,1.60
2018-04-06T20:29:48.358Z,1.30
2018-04-06T20:32:15.052Z,1.97
2018-04-06T20:34:41.753Z,0.90
2018-04-06T20:37:08.446Z,4.97
2018-04-06T20:39:35.152Z,1.60
2018-04-06T20:42:01.876Z,1.13
2018-04-06T20:44:28.596Z,1.70
2018-04-06T20:46:55.683Z,4.57
2018-04-06T20:49:22.421Z,1.77
2018-04-06T20:51:49.125Z,1.40
2018-04-06T20:54:15.833Z,9.10
2018-04-06T20:56:42.533Z,3.00
2018-04-06T20:59:09.245Z,13.07
2018-04-06T21:01:35.949Z,2.60
2018-04-06T21:04:02.702Z,2.87
2018-04-06T21:06:29.430Z,2.13
2018-04-06T21:08:56.146Z,1.90
2018-04-06T21:11:22.874Z,1.53
2018-04-06T21:13:49.575Z,1.40
2018-04-06T21:16:16.269Z,1.73
2018-04-06T21:18:42.993Z,1.20
2018-04-06T21:21:10.672Z,1.80
2018-04-06T21:23:37.376Z,2.07
2018-04-06T21:26:04.088Z,1.60
2018-04-06T21:28:30.801Z,1.77
2018-04-06T21:30:57.533Z,3.23
2018-04-06T21:33:24.232Z,1.40
2018-04-06T21:35:50.942Z,2.00
2018-04-06T21:38:17.637Z,3.80
2018-04-06T21:40:44.473Z,4.63
2018-04-06T21:43:11.194Z,3.80
2018-04-06T21:45:37.900Z,2.97
2018-04-06T21:48:04.597Z,1.60
2018-04-06T21:50:31.297Z,1.40
2018-04-06T21:52:58.001Z,1.53
2018-04-06T21:55:24.751Z,1.47
2018-04-06T21:57:51.457Z,1.50
2018-04-06T22:00:18.288Z,2.20
2018-04-06T22:02:44.993Z,4.50
2018-04-06T22:05:11.693Z,1.17
2018-04-06T22:07:38.412Z,1.03
2018-04-06T22:10:05.114Z,2.80
2018-04-06T22:12:31.814Z,1.10
2018-04-06T22:14:58.513Z,2.77
2018-04-06T22:17:25.213Z,1.57
2018-04-06T22:19:51.937Z,1.17
2018-04-06T22:22:18.639Z,1.17
2018-04-06T22:24:45.331Z,2.50
2018-04-06T22:27:12.029Z,0.93
2018-04-06T22:29:38.868Z,1.23
2018-04-06T22:32:05.594Z,1.30
2018-04-06T22:34:32.312Z,1.20
2018-04-06T22:36:59.083Z,1.33
2018-04-06T22:39:25.788Z,1.33
2018-04-06T22:41:52.484Z,1.30
2018-04-06T22:44:19.205Z,0.90
2018-04-06T22:46:45.910Z,1.50
2018-04-06T22:49:12.613Z,1.07
2018-04-06T22:51:39.379Z,2.00
2018-04-06T22:54:06.087Z,1.50
2018-04-06T22:56:32.817Z,1.40
2018-04-06T22:58:59.516Z,1.47
2018-04-06T23:01:26.377Z,1.80
2018-04-06T23:03:53.076Z,1.20
2018-04-06T23:06:19.777Z,4.50
2018-04-06T23:08:46.505Z,4.53
2018-04-06T23:11:13.203Z,3.67
2018-04-06T23:13:39.945Z,2.70
2018-04-06T23:16:06.644Z,2.90
2018-04-06T23:18:33.350Z,2.57
2018-04-06T23:21:00.082Z,1.20
2018-04-06T23:23:26.779Z,1.63
2018-04-06T23:25:53.489Z,1.77
2018-04-06T23:28:20.185Z,1.77
2018-04-06T23:30:46.882Z,1.47
2018-04-06T23:33:13.597Z,1.23
2018-04-06T23:35:40.293Z,1.30
2018-04-06T23:38:06.992Z,1.10
2018-04-06T23:40:33.707Z,1.20
2018-04-06T23:43:00.422Z,2.60
2018-04-06T23:45:27.340Z,1.40
2018-04-06T23:47:54.045Z,1.33
2018-04-06T23:50:20.745Z,1.20
2018-04-06T23:52:47.453Z,3.27
2018-04-06T23:55:14.153Z,1.60
2018-04-06T23:57:40.906Z,4.03
